createdAt,value
2019-05-18T00:00:10.746Z,18.40
2019-05-18T00:02:41.801Z,16.73
2019-05-18T00:05:11.624Z,17.27
2019-05-18T00:07:41.263Z,17.23
2019-05-18T00:10:12.324Z,16.67
2019-05-18T00:12:41.893Z,17.87
2019-05-18T00:15:12.467Z,18.47
2019-05-18T00:17:42.107Z,17.03
2019-05-18T00:20:11.929Z,17.47
2019-05-18T00:22:42.975Z,18.37
2019-05-18T00:25:12.641Z,18.53
2019-05-18T00:27:42.132Z,19.07
2019-05-18T00:30:12.530Z,17.60
2019-05-18T00:32:42.016Z,17.33
2019-05-18T00:35:11.949Z,17.67
2019-05-18T00:37:41.541Z,17.03
2019-05-18T00:40:11.185Z,17.73
2019-05-18T00:42:40.713Z,17.57
2019-05-18T00:45:10.372Z,15.50
2019-05-18T00:47:41.808Z,15.73
2019-05-18T00:50:11.921Z,16.10
2019-05-18T00:52:41.487Z,17.10
2019-05-18T00:55:11.088Z,17.10
2019-05-18T00:57:40.595Z,17.37
2019-05-18T01:00:11.990Z,15.73
2019-05-18T01:02:41.557Z,15.60
2019-05-18T01:05:11.427Z,15.87
2019-05-18T01:07:40.851Z,14.20
2019-05-18T01:10:11.131Z,13.13
2019-05-18T01:12:40.836Z,12.17
2019-05-18T01:15:11.596Z,11.53
2019-05-18T01:17:55.143Z,11.77
2019-05-18T01:20:13.258Z,11.03
2019-05-18T01:22:42.788Z,10.37
2019-05-18T01:25:12.341Z,10.37
2019-05-18T01:27:41.919Z,10.17
2019-05-18T01:30:12.488Z,10.43
2019-05-18T01:32:42.083Z,9.70
2019-05-18T01:35:12.183Z,10.40
2019-05-18T01:37:41.745Z,9.77
2019-05-18T01:40:11.508Z,9.83
2019-05-18T01:42:40.924Z,9.63
2019-05-18T01:45:16.886Z,8.77
2019-05-18T01:47:41.985Z,8.27
2019-05-18T01:50:11.782Z,9.13
2019-05-18T01:52:41.473Z,8.33
2019-05-18T01:55:11.227Z,8.80
2019-05-18T01:57:40.656Z,8.37
2019-05-18T02:00:10.766Z,7.93
2019-05-18T02:02:40.369Z,7.63
2019-05-18T02:05:09.967Z,7.77
2019-05-18T02:07:39.532Z,7.83
2019-05-18T02:10:09.462Z,6.83
2019-05-18T02:12:38.947Z,7.80
2019-05-18T02:15:09.208Z,7.40
2019-05-18T02:17:38.704Z,7.07
2019-05-18T02:20:09.756Z,6.97
2019-05-18T02:22:39.317Z,6.80
2019-05-18T02:25:09.076Z,7.07
2019-05-18T02:27:38.667Z,8.13
2019-05-18T02:30:10.353Z,7.20
2019-05-18T02:32:39.884Z,7.17
2019-05-18T02:35:09.569Z,8.30
2019-05-18T02:37:39.130Z,7.47
2019-05-18T02:40:09.010Z,7.77
2019-05-18T02:42:38.687Z,7.43
2019-05-18T02:45:08.443Z,7.00
2019-05-18T02:47:37.940Z,6.83
2019-05-18T02:50:09.034Z,6.70
2019-05-18T02:52:38.597Z,6.77
2019-05-18T02:55:08.744Z,6.40
2019-05-18T02:57:38.331Z,7.13
2019-05-18T03:00:11.782Z,7.50
2019-05-18T03:02:41.355Z,7.80
2019-05-18T03:05:11.214Z,7.93
2019-05-18T03:07:40.773Z,9.00
2019-05-18T03:10:10.586Z,8.50
2019-05-18T03:12:40.260Z,9.47
2019-05-18T03:15:10.324Z,10.00
2019-05-18T03:17:39.824Z,10.83
2019-05-18T03:20:11.150Z,11.33
2019-05-18T03:22:40.864Z,12.30
2019-05-18T03:25:10.528Z,10.87
2019-05-18T03:27:40.029Z,11.77
2019-05-18T03:30:10.151Z,11.37
2019-05-18T03:32:39.708Z,12.33
2019-05-18T03:35:09.660Z,11.57
2019-05-18T03:37:39.267Z,13.13
2019-05-18T03:40:09.305Z,14.93
2019-05-18T03:42:38.775Z,12.83
2019-05-18T03:45:09.888Z,14.87
2019-05-18T03:47:39.469Z,16.13
2019-05-18T03:50:09.205Z,19.23
2019-05-18T03:52:38.711Z,17.53
2019-05-18T03:55:08.324Z,19.00
2019-05-18T03:57:37.919Z,16.13
2019-05-18T04:00:08.744Z,17.83
2019-05-18T04:02:38.310Z,16.17
2019-05-18T04:05:07.983Z,16.10
2019-05-18T04:07:37.550Z,16.23
2019-05-18T04:10:09.067Z,16.07
2019-05-18T04:12:38.571Z,19.20
2019-05-18T04:15:10.038Z,16.63
2019-05-18T04:17:39.545Z,16.13
2019-05-18T04:20:15.425Z,17.03
2019-05-18T04:22:42.229Z,20.17
2019-05-18T04:25:12.050Z,19.60
2019-05-18T04:27:41.677Z,18.13
2019-05-18T04:30:15.035Z,19.67
2019-05-18T04:32:44.785Z,20.40
2019-05-18T04:35:20.139Z,17.77
2019-05-18T04:37:49.857Z,19.37
2019-05-18T04:40:20.800Z,18.57
2019-05-18T04:45:37.375Z,18.50
2019-05-18T04:48:07.109Z,18.70
2019-05-18T04:50:39.886Z,17.43
2019-05-18T04:53:11.300Z,21.83
2019-05-18T04:55:42.920Z,19.30
2019-05-18T04:58:15.136Z,18.27
2019-05-18T05:00:45.227Z,18.97
2019-05-18T05:03:14.882Z,20.93
2019-05-18T05:05:46.298Z,23.00
2019-05-18T05:08:17.493Z,22.63
2019-05-18T05:10:47.288Z,23.13
2019-05-18T05:13:16.879Z,23.23
2019-05-18T05:15:47.297Z,24.77
2019-05-18T05:18:17.951Z,26.37
2019-05-18T05:20:47.456Z,23.93
2019-05-18T05:23:17.027Z,23.80
2019-05-18T05:25:46.533Z,25.30
2019-05-18T05:28:17.105Z,25.67
2019-05-18T05:30:46.684Z,23.07
2019-05-18T05:33:16.363Z,21.93
2019-05-18T05:35:45.942Z,18.23
2019-05-18T05:38:15.569Z,19.53
2019-05-18T05:40:45.149Z,20.17
2019-05-18T05:43:14.648Z,21.60
2019-05-18T05:45:45.428Z,20.10
2019-05-18T05:48:15.165Z,20.20
2019-05-18T05:50:44.654Z,20.33
2019-05-18T05:53:14.186Z,20.20
2019-05-18T05:55:43.681Z,20.43
2019-05-18T05:58:13.447Z,20.03
2019-05-18T06:00:42.991Z,21.33
2019-05-18T06:03:12.482Z,20.80
2019-05-18T06:05:41.921Z,22.53
2019-05-18T06:08:11.599Z,21.37
2019-05-18T06:10:41.031Z,21.13
2019-05-18T06:13:10.468Z,18.37
2019-05-18T06:15:39.926Z,21.33
2019-05-18T06:18:09.467Z,20.87
2019-05-18T06:20:51.120Z,19.50
2019-05-18T06:23:10.220Z,20.73
2019-05-18T06:25:39.850Z,21.77
2019-05-18T06:28:09.395Z,22.33
2019-05-18T06:30:38.925Z,20.70
2019-05-18T06:33:08.508Z,20.43
2019-05-18T06:35:37.999Z,20.97
2019-05-18T06:38:07.616Z,21.03
2019-05-18T06:40:37.043Z,22.97
2019-05-18T06:43:06.555Z,21.87
2019-05-18T06:45:36.100Z,22.00
2019-05-18T06:48:07.009Z,24.50
2019-05-18T06:50:36.586Z,23.93
2019-05-18T06:53:06.286Z,25.37
2019-05-18T06:55:37.739Z,23.40
2019-05-18T06:58:07.396Z,25.27
2019-05-18T07:00:37.289Z,26.63
2019-05-18T07:03:07.165Z,25.73
2019-05-18T07:05:36.610Z,25.17
2019-05-18T07:08:06.323Z,26.10
2019-05-18T07:10:35.817Z,26.23
2019-05-18T07:13:05.388Z,24.60
2019-05-18T07:15:34.958Z,25.77
2019-05-18T07:18:04.815Z,25.17
2019-05-18T07:20:34.461Z,24.90
2019-05-18T07:23:04.035Z,24.87
2019-05-18T07:25:33.600Z,26.20
2019-05-18T07:28:03.171Z,25.67
2019-05-18T07:30:32.698Z,29.10
2019-05-18T07:33:02.492Z,26.73
2019-05-18T07:35:32.097Z,26.50
2019-05-18T07:38:01.925Z,29.97
2019-05-18T07:40:31.574Z,28.53
2019-05-18T07:43:02.220Z,25.67
2019-05-18T07:45:34.837Z,28.40
2019-05-18T07:48:05.932Z,27.37
2019-05-18T07:50:35.523Z,21.83
2019-05-18T07:53:05.038Z,22.33
2019-05-18T07:55:34.725Z,22.23
2019-05-18T07:58:04.323Z,23.77
2019-05-18T08:00:33.962Z,22.90
2019-05-18T08:03:03.509Z,23.90
2019-05-18T08:05:33.228Z,24.50
2019-05-18T08:08:05.397Z,27.87
2019-05-18T08:10:37.254Z,27.73
2019-05-18T08:13:07.490Z,26.20
2019-05-18T08:15:37.276Z,23.77
2019-05-18T08:18:07.704Z,28.50
2019-05-18T08:20:37.567Z,29.63
2019-05-18T08:23:07.379Z,30.53
2019-05-18T08:25:36.956Z,33.33
2019-05-18T08:28:15.771Z,33.77
2019-05-18T08:30:48.836Z,32.40
2019-05-18T08:33:19.643Z,30.17
2019-05-18T08:35:50.256Z,32.57
2019-05-18T08:38:19.967Z,30.57
2019-05-18T08:40:50.264Z,32.27
2019-05-18T08:43:19.968Z,30.03
2019-05-18T08:45:49.678Z,30.27
2019-05-18T08:48:19.854Z,32.97
2019-05-18T08:50:49.518Z,30.10
2019-05-18T08:53:19.621Z,32.00
2019-05-18T08:55:52.085Z,30.93
2019-05-18T08:58:21.864Z,32.93
2019-05-18T09:00:51.825Z,31.03
2019-05-18T09:03:21.551Z,32.07
2019-05-18T09:05:51.305Z,31.03
2019-05-18T09:08:21.130Z,30.63
2019-05-18T09:10:50.717Z,30.90
2019-05-18T09:13:20.472Z,29.33
2019-05-18T09:15:50.178Z,31.83
2019-05-18T09:18:19.793Z,30.60
2019-05-18T09:20:49.448Z,30.30
2019-05-18T09:23:18.995Z,30.80
2019-05-18T09:25:48.604Z,27.97
2019-05-18T09:28:18.222Z,27.33
2019-05-18T09:30:47.851Z,28.27
2019-05-18T09:33:17.459Z,28.17
2019-05-18T09:35:47.034Z,31.20
2019-05-18T09:38:16.602Z,29.80
2019-05-18T09:40:46.283Z,28.93
2019-05-18T09:43:15.861Z,27.90
2019-05-18T09:45:45.344Z,28.70
2019-05-18T09:48:15.090Z,28.83
2019-05-18T09:50:44.661Z,29.90
2019-05-18T09:53:17.037Z,26.93
2019-05-18T09:55:48.226Z,27.23
2019-05-18T09:58:17.922Z,26.03
2019-05-18T10:00:48.996Z,24.17
2019-05-18T10:03:18.563Z,24.37
2019-05-18T10:05:48.202Z,23.00
2019-05-18T10:08:17.843Z,23.70
2019-05-18T10:10:47.526Z,24.27
2019-05-18T10:13:17.098Z,21.93
2019-05-18T10:15:46.664Z,22.20
2019-05-18T10:18:16.163Z,20.63
2019-05-18T10:20:45.632Z,23.03
2019-05-18T10:23:15.272Z,19.37
2019-05-18T10:25:44.709Z,20.17
2019-05-18T10:28:14.504Z,19.97
2019-05-18T10:30:44.074Z,18.67
2019-05-18T10:33:13.892Z,19.87
2019-05-18T10:35:43.601Z,18.10
2019-05-18T10:38:13.104Z,16.47
2019-05-18T10:40:42.667Z,17.97
2019-05-18T10:43:12.200Z,22.33
2019-05-18T10:45:44.976Z,17.43
2019-05-18T10:48:13.498Z,16.30
2019-05-18T10:50:44.726Z,18.67
2019-05-18T10:53:27.863Z,15.90
2019-05-18T10:55:46.174Z,16.27
2019-05-18T10:58:15.886Z,17.43
2019-05-18T11:00:45.451Z,23.70
2019-05-18T11:03:15.117Z,11.67
2019-05-18T11:05:44.806Z,12.73
2019-05-18T11:08:14.482Z,12.57
2019-05-18T11:10:44.045Z,13.47
2019-05-18T11:13:13.492Z,12.80
2019-05-18T11:15:42.997Z,13.40
2019-05-18T11:18:12.778Z,12.57
2019-05-18T11:20:42.351Z,11.00
2019-05-18T11:23:11.784Z,9.27
2019-05-18T11:25:42.166Z,9.77
2019-05-18T11:28:11.732Z,7.30
2019-05-18T11:30:41.218Z,7.73
2019-05-18T11:33:10.926Z,8.67
2019-05-18T11:35:40.493Z,7.87
2019-05-18T11:38:11.310Z,7.00
2019-05-18T11:40:40.796Z,7.07
2019-05-18T11:43:10.358Z,7.20
2019-05-18T11:45:39.945Z,6.67
2019-05-18T11:48:09.685Z,7.53
2019-05-18T11:50:39.187Z,10.60
2019-05-18T11:53:08.815Z,12.70
2019-05-18T11:55:38.303Z,10.47
2019-05-18T11:58:07.932Z,10.60
2019-05-18T12:00:37.582Z,9.30
2019-05-18T12:03:07.346Z,7.90
2019-05-18T12:05:37.169Z,8.43
2019-05-18T12:08:06.974Z,8.40
2019-05-18T12:10:38.327Z,8.53
2019-05-18T12:13:08.152Z,7.80
2019-05-18T12:15:37.758Z,7.67
2019-05-18T12:18:07.455Z,7.00
2019-05-18T12:20:37.090Z,9.80
2019-05-18T12:23:08.295Z,5.73
2019-05-18T12:25:37.949Z,2.30
2019-05-18T12:28:08.573Z,2.20
2019-05-18T12:30:39.463Z,2.27
2019-05-18T12:33:08.968Z,2.20
2019-05-18T12:35:38.531Z,1.93
2019-05-18T12:38:08.333Z,2.17
2019-05-18T12:40:38.035Z,1.97
2019-05-18T12:43:07.602Z,1.90
2019-05-18T12:45:37.055Z,2.63
2019-05-18T12:48:06.607Z,2.30
2019-05-18T12:50:36.236Z,2.37
2019-05-18T12:53:06.002Z,3.27
2019-05-18T12:55:36.865Z,2.40
2019-05-18T12:58:06.476Z,2.50
2019-05-18T13:00:35.967Z,2.23
2019-05-18T13:03:05.589Z,2.23
2019-05-18T13:05:35.217Z,2.27
2019-05-18T13:08:04.860Z,2.30
2019-05-18T13:10:35.357Z,1.90
2019-05-18T13:13:05.079Z,2.20
2019-05-18T13:15:34.709Z,2.20
2019-05-18T13:18:04.195Z,1.93
2019-05-18T13:20:33.765Z,1.90
2019-05-18T13:23:03.407Z,2.03
2019-05-18T13:25:32.967Z,2.30
2019-05-18T13:28:02.533Z,2.27
2019-05-18T13:30:32.166Z,2.37
2019-05-18T13:33:01.815Z,2.57
2019-05-18T13:35:31.373Z,3.30
2019-05-18T13:38:01.175Z,3.70
2019-05-18T13:40:31.038Z,2.93
2019-05-18T13:43:00.522Z,3.10
2019-05-18T13:45:30.251Z,3.07
2019-05-18T13:48:00.168Z,2.87
2019-05-18T13:50:29.686Z,3.27
2019-05-18T13:53:00.019Z,3.30
2019-05-18T13:55:29.710Z,3.27
2019-05-18T13:57:59.130Z,2.83
2019-05-18T14:00:28.695Z,3.30
2019-05-18T14:02:58.359Z,3.43
2019-05-18T14:05:28.061Z,3.50
2019-05-18T14:07:57.430Z,2.70
2019-05-18T14:10:26.986Z,3.37
2019-05-18T14:12:57.456Z,3.10
2019-05-18T14:15:27.021Z,3.10
2019-05-18T14:17:56.530Z,3.20
2019-05-18T14:20:26.610Z,3.23
2019-05-18T14:22:56.238Z,2.83
2019-05-18T14:25:25.721Z,3.20
2019-05-18T14:27:55.215Z,3.40
2019-05-18T14:30:24.856Z,2.70
2019-05-18T14:32:54.484Z,3.20
2019-05-18T14:35:24.080Z,2.67
2019-05-18T14:37:53.744Z,2.67
2019-05-18T14:40:23.304Z,3.20
2019-05-18T14:42:52.834Z,3.17
2019-05-18T14:45:22.409Z,3.00
2019-05-18T14:47:52.615Z,2.93
2019-05-18T14:50:22.390Z,3.40
2019-05-18T14:52:52.006Z,2.90
2019-05-18T14:55:32.885Z,3.07
2019-05-18T14:57:54.296Z,2.70
2019-05-18T15:00:23.906Z,2.23
2019-05-18T15:02:53.618Z,2.77
2019-05-18T15:05:23.207Z,3.23
2019-05-18T15:07:52.802Z,2.77
2019-05-18T15:10:22.357Z,3.37
2019-05-18T15:12:51.916Z,4.97
2019-05-18T15:15:21.478Z,5.13
2019-05-18T15:17:50.974Z,5.40
2019-05-18T15:20:20.627Z,5.43
2019-05-18T15:22:50.239Z,5.00
2019-05-18T15:25:19.981Z,4.83
2019-05-18T15:27:49.570Z,4.83
2019-05-18T15:30:19.792Z,4.50
2019-05-18T15:32:49.453Z,5.10
2019-05-18T15:35:19.018Z,4.70
2019-05-18T15:37:48.663Z,4.90
2019-05-18T15:40:18.335Z,4.70
2019-05-18T15:42:47.900Z,4.93
2019-05-18T15:45:19.022Z,4.70
2019-05-18T15:47:48.738Z,5.10
2019-05-18T15:50:19.709Z,5.93
2019-05-18T15:52:49.283Z,5.73
2019-05-18T15:55:19.617Z,6.23
2019-05-18T15:57:49.255Z,6.17
2019-05-18T16:00:20.017Z,5.30
2019-05-18T16:02:49.513Z,6.63
2019-05-18T16:05:19.260Z,5.87
2019-05-18T16:07:48.997Z,7.80
2019-05-18T16:10:18.753Z,5.83
2019-05-18T16:12:48.320Z,6.17
2019-05-18T16:15:18.129Z,7.13
2019-05-18T16:17:47.721Z,8.93
2019-05-18T16:20:17.391Z,6.30
2019-05-18T16:22:47.084Z,5.50
2019-05-18T16:25:17.150Z,3.93
2019-05-18T16:27:46.755Z,4.37
2019-05-18T16:30:16.509Z,5.17
2019-05-18T16:32:46.007Z,4.40
2019-05-18T16:35:15.749Z,4.43
2019-05-18T16:37:45.423Z,5.33
2019-05-18T16:40:15.289Z,6.37
2019-05-18T16:42:46.643Z,7.47
2019-05-18T16:45:17.246Z,5.50
2019-05-18T16:47:46.969Z,4.00
2019-05-18T16:50:16.707Z,5.77
2019-05-18T16:52:46.203Z,9.10
2019-05-18T16:55:15.797Z,6.67
2019-05-18T16:57:45.327Z,5.83
2019-05-18T17:00:16.732Z,5.03
2019-05-18T17:02:46.442Z,4.37
2019-05-18T17:05:16.273Z,4.97
2019-05-18T17:07:45.856Z,5.07
2019-05-18T17:10:15.787Z,7.73
2019-05-18T17:12:45.301Z,6.17
2019-05-18T17:15:15.876Z,7.73
2019-05-18T17:17:47.599Z,5.63
2019-05-18T17:20:17.618Z,5.10
2019-05-18T17:22:47.191Z,5.73
2019-05-18T17:25:16.962Z,5.60
2019-05-18T17:27:46.644Z,4.93
2019-05-18T17:30:16.605Z,3.97
2019-05-18T17:32:46.420Z,4.07
2019-05-18T17:35:16.132Z,3.20
2019-05-18T17:37:45.692Z,5.07
2019-05-18T17:40:15.577Z,7.53
2019-05-18T17:42:45.477Z,5.70
2019-05-18T17:45:15.398Z,4.50
2019-05-18T17:47:44.981Z,4.50
2019-05-18T17:50:40.934Z,3.67
2019-05-18T17:53:12.106Z,3.40
2019-05-18T17:55:41.774Z,3.07
2019-05-18T17:58:11.260Z,3.10
2019-05-18T18:00:40.923Z,2.87
2019-05-18T18:03:10.387Z,3.27
2019-05-18T18:05:39.804Z,2.53
2019-05-18T18:08:09.369Z,3.30
2019-05-18T18:10:39.101Z,3.10
2019-05-18T18:13:09.588Z,3.90
2019-05-18T18:15:39.670Z,3.97
2019-05-18T18:18:10.834Z,3.90
2019-05-18T18:20:40.486Z,3.83
2019-05-18T18:23:14.565Z,3.97
2019-05-18T18:26:47.038Z,3.40
2019-05-18T18:28:32.681Z,3.90
2019-05-18T18:31:02.405Z,3.40
2019-05-18T18:33:31.968Z,3.83
2019-05-18T18:36:04.332Z,4.47
2019-05-18T18:38:34.203Z,4.23
2019-05-18T18:41:03.917Z,4.10
2019-05-18T18:43:33.479Z,3.50
2019-05-18T18:46:03.085Z,4.27
2019-05-18T18:48:32.650Z,3.57
2019-05-18T18:51:02.085Z,3.90
2019-05-18T18:53:31.676Z,3.67
2019-05-18T18:56:01.096Z,3.57
2019-05-18T18:58:42.875Z,3.80
2019-05-18T19:01:14.204Z,4.00
2019-05-18T19:03:43.732Z,4.10
2019-05-18T19:06:13.337Z,4.60
2019-05-18T19:08:42.977Z,4.03
2019-05-18T19:11:12.554Z,4.70
2019-05-18T19:13:45.565Z,4.53
2019-05-18T19:16:13.547Z,3.80
2019-05-18T19:18:44.389Z,4.50
2019-05-18T19:21:13.842Z,3.90
2019-05-18T19:23:43.268Z,4.00
2019-05-18T19:26:13.964Z,4.87
2019-05-18T19:28:43.815Z,3.57
2019-05-18T19:31:13.324Z,4.50
2019-05-18T19:33:43.966Z,4.30
2019-05-18T19:36:13.539Z,4.13
2019-05-18T19:38:43.191Z,4.37
2019-05-18T19:41:12.828Z,3.97
2019-05-18T19:43:42.365Z,3.60
2019-05-18T19:46:11.792Z,4.03
2019-05-18T19:48:41.213Z,4.10
2019-05-18T19:51:10.821Z,4.03
2019-05-18T19:53:40.390Z,3.90
2019-05-18T19:56:11.529Z,3.83
2019-05-18T19:58:41.318Z,3.83
2019-05-18T20:01:10.869Z,3.37
2019-05-18T20:03:41.204Z,3.33
2019-05-18T20:06:10.743Z,3.23
2019-05-18T20:08:41.946Z,3.60
2019-05-18T20:11:13.002Z,3.63
2019-05-18T20:13:42.511Z,4.03
2019-05-18T20:16:11.926Z,4.10
2019-05-18T20:18:41.432Z,4.40
2019-05-18T20:21:11.017Z,4.93
2019-05-18T20:23:40.459Z,4.67
2019-05-18T20:26:10.015Z,5.07
2019-05-18T20:28:39.607Z,4.80
2019-05-18T20:31:09.333Z,4.63
2019-05-18T20:33:38.926Z,4.63
2019-05-18T20:36:08.523Z,5.40
2019-05-18T20:38:40.499Z,4.60
2019-05-18T20:41:10.161Z,4.80
2019-05-18T20:43:39.787Z,4.87
2019-05-18T20:46:09.424Z,5.17
2019-05-18T20:48:39.326Z,5.50
2019-05-18T20:51:08.882Z,4.90
2019-05-18T20:53:40.982Z,5.23
2019-05-18T20:56:09.785Z,4.97
2019-05-18T20:58:40.844Z,5.30
2019-05-18T21:01:10.521Z,5.80
2019-05-18T21:03:40.158Z,5.20
2019-05-18T21:06:09.719Z,5.93
2019-05-18T21:08:39.202Z,5.27
2019-05-18T21:11:10.402Z,5.57
2019-05-18T21:13:39.846Z,5.90
2019-05-18T21:16:09.415Z,6.23
2019-05-18T21:18:39.937Z,5.33
2019-05-18T21:21:10.560Z,5.53
2019-05-18T21:23:40.053Z,5.93
2019-05-18T21:26:09.538Z,5.47
2019-05-18T21:28:55.194Z,5.20
2019-05-18T21:31:11.980Z,5.70
2019-05-18T21:33:41.523Z,5.17
2019-05-18T21:36:10.975Z,6.87
2019-05-18T21:38:40.737Z,5.67
2019-05-18T21:41:10.688Z,5.93
2019-05-18T21:43:40.366Z,5.93
2019-05-18T21:46:10.111Z,6.03
2019-05-18T21:48:39.832Z,5.70
2019-05-18T21:51:12.277Z,5.17
2019-05-18T21:53:42.022Z,5.80
2019-05-18T21:56:11.721Z,5.80
2019-05-18T21:58:41.483Z,6.40
2019-05-18T22:01:11.200Z,6.80
2019-05-18T22:03:44.660Z,6.17
2019-05-18T22:06:14.256Z,5.70
2019-05-18T22:08:43.890Z,6.87
2019-05-18T22:11:13.518Z,6.17
2019-05-18T22:13:42.974Z,6.40
2019-05-18T22:16:12.463Z,6.20
2019-05-18T22:18:41.880Z,5.93
2019-05-18T22:21:11.515Z,6.27
2019-05-18T22:23:41.006Z,6.37
2019-05-18T22:26:10.512Z,6.30
2019-05-18T22:28:40.003Z,6.63
2019-05-18T22:31:09.542Z,6.37
2019-05-18T22:33:39.131Z,6.80
2019-05-18T22:36:08.696Z,6.20
2019-05-18T22:38:38.191Z,6.57
2019-05-18T22:41:08.037Z,6.47
2019-05-18T22:43:37.610Z,6.80
2019-05-18T22:46:07.164Z,5.97
2019-05-18T22:48:41.302Z,6.70
2019-05-18T22:51:07.965Z,5.90
2019-05-18T22:53:37.582Z,5.97
2019-05-18T22:56:07.050Z,5.43
2019-05-18T22:58:37.917Z,5.70
2019-05-18T23:01:07.383Z,6.10
2019-05-18T23:03:36.961Z,5.80
2019-05-18T23:06:06.478Z,6.20
2019-05-18T23:08:36.005Z,6.03
2019-05-18T23:11:05.567Z,5.03
2019-05-18T23:13:35.018Z,7.17
2019-05-18T23:16:05.888Z,5.37
2019-05-18T23:18:36.547Z,5.83
2019-05-18T23:21:06.125Z,5.87
2019-05-18T23:23:35.702Z,5.50
2019-05-18T23:26:05.220Z,5.20
2019-05-18T23:28:34.643Z,5.63
2019-05-18T23:31:05.446Z,5.73
2019-05-18T23:33:34.994Z,5.67
2019-05-18T23:36:05.703Z,5.80
2019-05-18T23:38:35.221Z,6.10
2019-05-18T23:41:04.768Z,5.70
2019-05-18T23:43:35.264Z,5.23
2019-05-18T23:46:04.922Z,5.93
2019-05-18T23:48:34.693Z,5.80
2019-05-18T23:51:04.190Z,5.50
2019-05-18T23:53:33.613Z,5.80
2019-05-18T23:56:03.308Z,6.17
2019-05-18T23:58:33.040Z,5.43
